Time;durP1;ratioP1;P1;durP2;ratioP2;P2;SDS_P1;SDS_P2;PMS_P1;PMS_P2;Temp;Humidity;BMP_temperature;BMP_pressure;BME280_temperature;BME280_humidity;BME280_pressure;Samples;Min_cycle;Max_cycle;Signal;HPM_P1;HPM_P2
2022/03/31 00:00:49;;;;;;;4.70;1.20;;;3.00;99.90;;;;;;5034001;28;20049;-71
2022/03/31 00:03:17;;;;;;;3.88;1.05;;;3.10;99.90;;;;;;5034052;28;20124;-72
2022/03/31 00:05:44;;;;;;;4.70;1.10;;;3.10;99.90;;;;;;5034212;28;20037;-71
2022/03/31 00:08:13;;;;;;;4.43;1.40;;;2.90;99.90;;;;;;5034229;28;20041;-72
2022/03/31 00:10:40;;;;;;;4.30;1.60;;;3.20;99.90;;;;;;5033677;28;20104;-73
2022/03/31 00:13:13;;;;;;;6.70;2.08;;;3.10;99.90;;;;;;5034006;28;20132;-72
2022/03/31 00:15:40;;;;;;;8.80;1.73;;;3.10;99.90;;;;;;5033631;28;20061;-73
2022/03/31 00:18:07;;;;;;;6.30;1.75;;;3.00;99.90;;;;;;5033863;28;20042;-73
2022/03/31 00:20:33;;;;;;;4.93;1.80;;;3.10;99.90;;;;;;5033521;28;20489;-72
2022/03/31 00:22:59;;;;;;;8.38;2.40;;;3.00;99.90;;;;;;5033562;28;20038;-71
2022/03/31 00:25:26;;;;;;;6.57;1.95;;;3.10;99.90;;;;;;5033622;28;20041;-72
2022/03/31 00:27:53;;;;;;;4.75;1.70;;;3.00;99.90;;;;;;5033141;28;20057;-71
2022/03/31 00:30:18;;;;;;;6.93;2.08;;;3.00;99.90;;;;;;5033806;28;20393;-70
2022/03/31 00:32:44;;;;;;;7.93;2.45;;;3.00;99.90;;;;;;5033267;28;20056;-71
2022/03/31 00:35:12;;;;;;;7.35;2.00;;;3.40;99.90;;;;;;5033369;28;20041;-71
2022/03/31 00:37:43;;;;;;;6.95;2.67;;;3.00;99.90;;;;;;5033367;28;20103;-71
2022/03/31 00:40:11;;;;;;;8.07;2.22;;;3.00;99.90;;;;;;5033125;28;20077;-71
2022/03/31 00:42:45;;;;;;;6.70;2.40;;;3.00;99.90;;;;;;5033017;28;20094;-71
2022/03/31 00:45:16;;;;;;;5.28;2.17;;;3.00;99.90;;;;;;5032564;28;20050;-70
2022/03/31 00:47:42;;;;;;;6.13;2.35;;;3.00;99.90;;;;;;5033482;28;20037;-72
2022/03/31 00:50:13;;;;;;;8.75;2.50;;;3.40;99.90;;;;;;5033164;28;20511;-70
2022/03/31 00:52:39;;;;;;;7.03;2.20;;;3.00;99.90;;;;;;5033387;28;20481;-71
2022/03/31 00:55:09;;;;;;;6.20;2.20;;;3.00;99.90;;;;;;5033086;28;20084;-72
2022/03/31 00:57:35;;;;;;;5.40;2.17;;;2.90;99.90;;;;;;5032800;28;20053;-70
2022/03/31 01:00:02;;;;;;;6.15;2.30;;;3.00;99.90;;;;;;5015261;28;20050;-72
2022/03/31 01:02:32;;;;;;;8.15;2.78;;;3.20;99.90;;;;;;5033103;28;20041;-71
2022/03/31 01:05:00;;;;;;;7.35;2.50;;;2.90;99.90;;;;;;5033080;28;20087;-72
2022/03/31 01:07:26;;;;;;;7.25;2.53;;;2.90;99.90;;;;;;5032863;28;20046;-71
2022/03/31 01:09:53;;;;;;;8.40;3.05;;;2.90;99.90;;;;;;5033288;28;20068;-74
2022/03/31 01:12:19;;;;;;;9.98;2.83;;;2.90;99.90;;;;;;5032890;28;20486;-70
2022/03/31 01:14:45;;;;;;;7.40;2.60;;;3.30;99.90;;;;;;5031988;28;20049;-73
2022/03/31 01:17:10;;;;;;;9.30;2.78;;;2.80;99.90;;;;;;5033140;28;20059;-74
2022/03/31 01:19:36;;;;;;;8.48;2.67;;;2.80;99.90;;;;;;5033026;28;20041;-74
2022/03/31 01:22:02;;;;;;;9.30;2.70;;;2.70;99.90;;;;;;5015078;28;20037;-70
2022/03/31 01:24:28;;;;;;;7.03;2.78;;;2.70;99.90;;;;;;5015538;28;20487;-71
2022/03/31 01:26:54;;;;;;;10.18;3.13;;;2.70;99.90;;;;;;5033061;28;20096;-72
2022/03/31 01:29:21;;;;;;;10.20;2.90;;;2.70;99.90;;;;;;5032875;28;20049;-71
2022/03/31 01:31:47;;;;;;;9.23;3.50;;;2.70;99.90;;;;;;5032564;28;20552;-71
2022/03/31 01:34:12;;;;;;;9.40;3.70;;;2.60;99.90;;;;;;5042333;28;20103;-71
2022/03/31 01:36:38;;;;;;;7.78;3.10;;;2.60;99.90;;;;;;5044567;28;20053;-71
2022/03/31 01:39:05;;;;;;;10.05;3.80;;;2.60;99.90;;;;;;5036487;28;20033;-69
2022/03/31 01:41:31;;;;;;;9.10;3.15;;;2.60;99.90;;;;;;5032673;28;20072;-70
2022/03/31 01:43:58;;;;;;;10.80;4.15;;;2.50;99.90;;;;;;5014954;28;20045;-71
2022/03/31 01:46:29;;;;;;;11.32;4.10;;;2.50;99.90;;;;;;5032734;28;20034;-70
2022/03/31 01:48:55;;;;;;;8.53;4.23;;;2.50;99.90;;;;;;5032660;28;20125;-69
2022/03/31 01:51:21;;;;;;;10.05;4.43;;;2.50;99.90;;;;;;4998502;28;20723;-71
2022/03/31 01:53:47;;;;;;;11.80;5.22;;;2.70;99.90;;;;;;5032655;28;20524;-71
2022/03/31 01:56:13;;;;;;;11.13;5.80;;;3.40;99.90;;;;;;5017430;28;20068;-70
2022/03/31 01:58:39;;;;;;;13.00;6.32;;;2.50;99.90;;;;;;5036785;28;20137;-71
2022/03/31 02:01:04;;;;;;;14.88;6.28;;;2.40;99.90;;;;;;5036642;28;20370;-71
2022/03/31 02:03:30;;;;;;;12.55;6.05;;;2.40;99.90;;;;;;5017843;28;20052;-69
2022/03/31 02:05:56;;;;;;;14.57;7.22;;;2.40;99.90;;;;;;5036452;28;20046;-71
2022/03/31 02:08:22;;;;;;;12.40;6.53;;;2.40;99.90;;;;;;5036430;28;20049;-71
2022/03/31 02:10:49;;;;;;;12.38;6.95;;;2.50;99.90;;;;;;5018580;28;20041;-71
2022/03/31 02:13:15;;;;;;;14.27;7.35;;;2.50;99.90;;;;;;5036764;28;20053;-68
2022/03/31 02:15:41;;;;;;;13.90;7.93;;;2.50;99.90;;;;;;5015056;28;20065;-69
2022/03/31 02:18:06;;;;;;;14.48;7.65;;;2.50;99.90;;;;;;5016933;28;20042;-71
2022/03/31 02:20:32;;;;;;;16.42;6.90;;;2.50;99.90;;;;;;5016720;28;20046;-70
2022/03/31 02:23:00;;;;;;;13.63;7.63;;;2.50;99.90;;;;;;5016712;28;20099;-70
2022/03/31 02:25:26;;;;;;;15.73;7.75;;;2.50;99.90;;;;;;5014949;28;20505;-69
2022/03/31 02:27:53;;;;;;;13.30;7.32;;;2.50;99.90;;;;;;5015901;28;20041;-68
2022/03/31 02:30:20;;;;;;;15.65;8.27;;;2.50;99.90;;;;;;4999126;28;20394;-70
2022/03/31 02:32:45;;;;;;;14.60;7.53;;;2.50;99.90;;;;;;5016328;28;20176;-71
2022/03/31 02:35:11;;;;;;;12.57;7.40;;;2.40;99.90;;;;;;5015673;28;20557;-70
2022/03/31 02:37:37;;;;;;;17.25;8.25;;;2.40;99.90;;;;;;5015838;28;20056;-71
2022/03/31 02:40:04;;;;;;;13.05;7.90;;;2.40;99.90;;;;;;5015782;28;20108;-71
2022/03/31 02:42:30;;;;;;;15.15;7.47;;;2.40;99.90;;;;;;5014514;28;20045;-71
2022/03/31 02:44:56;;;;;;;13.05;7.28;;;2.40;99.90;;;;;;5014538;28;20061;-70
2022/03/31 02:47:21;;;;;;;16.23;8.20;;;2.30;99.90;;;;;;5016042;28;20046;-70
2022/03/31 02:49:47;;;;;;;12.60;7.32;;;2.30;99.90;;;;;;5015433;28;20049;-71
2022/03/31 02:52:13;;;;;;;14.40;8.05;;;2.30;99.90;;;;;;5014328;28;20538;-71
2022/03/31 02:57:23;;;;;;;11.15;6.13;;;2.80;99.90;;;;;;5015732;28;20042;-69
2022/03/31 02:59:48;;;;;;;12.52;5.47;;;2.30;99.90;;;;;;5015511;28;20077;-71
2022/03/31 03:02:14;;;;;;;12.70;5.68;;;2.30;99.90;;;;;;5015411;28;20056;-69
2022/03/31 03:04:40;;;;;;;13.40;6.65;;;2.30;99.90;;;;;;5015292;28;20073;-71
2022/03/31 03:07:06;;;;;;;14.57;5.70;;;2.30;99.90;;;;;;5013770;28;20406;-70
2022/03/31 03:09:31;;;;;;;18.25;5.43;;;2.30;99.90;;;;;;5015639;28;20053;-72
2022/03/31 03:11:57;;;;;;;12.02;5.07;;;2.20;99.90;;;;;;5014330;28;20410;-71
2022/03/31 03:14:23;;;;;;;11.68;5.75;;;2.20;99.90;;;;;;5022348;28;20512;-70
2022/03/31 03:16:49;;;;;;;10.73;5.40;;;2.20;99.90;;;;;;5035285;28;20065;-71
2022/03/31 03:19:14;;;;;;;12.55;5.53;;;2.20;99.90;;;;;;5017697;28;20040;-71
2022/03/31 03:21:40;;;;;;;12.75;5.70;;;2.20;99.90;;;;;;5016785;28;20493;-68
2022/03/31 03:24:06;;;;;;;10.48;5.15;;;2.20;99.90;;;;;;5035303;28;20046;-70
2022/03/31 03:26:32;;;;;;;11.65;5.22;;;2.20;99.90;;;;;;5035690;28;20034;-71
2022/03/31 03:28:57;;;;;;;9.98;4.57;;;2.20;99.90;;;;;;5017129;28;20041;-72
2022/03/31 03:31:23;;;;;;;12.02;5.38;;;2.20;99.90;;;;;;5035458;28;20053;-70
2022/03/31 03:33:49;;;;;;;12.02;5.40;;;2.10;99.90;;;;;;5048865;28;20029;-72
2022/03/31 03:36:17;;;;;;;11.50;5.30;;;2.20;99.90;;;;;;5052935;28;20045;-72
2022/03/31 03:38:43;;;;;;;11.15;5.80;;;2.90;99.90;;;;;;5019161;28;20049;-70
2022/03/31 03:41:11;;;;;;;11.13;4.93;;;2.20;99.90;;;;;;5036772;28;20048;-70
2022/03/31 03:43:37;;;;;;;11.00;4.78;;;2.20;99.90;;;;;;5034957;28;20041;-70
2022/03/31 03:46:03;;;;;;;12.93;5.50;;;2.20;99.90;;;;;;5034918;28;20106;-70
2022/03/31 03:48:29;;;;;;;10.73;5.47;;;2.10;99.90;;;;;;5034438;28;20489;-70
2022/03/31 03:50:55;;;;;;;13.23;5.80;;;2.20;99.90;;;;;;5033995;28;20106;-69
2022/03/31 03:53:21;;;;;;;13.52;6.18;;;2.20;99.90;;;;;;5034319;28;20113;-72
2022/03/31 03:55:47;;;;;;;12.90;5.65;;;2.20;99.90;;;;;;5033942;28;20045;-70
2022/03/31 03:58:13;;;;;;;12.55;5.55;;;2.20;99.90;;;;;;5034132;28;20057;-70
2022/03/31 04:00:39;;;;;;;12.13;5.47;;;2.20;99.90;;;;;;5034228;28;20052;-71
2022/03/31 04:03:05;;;;;;;10.57;4.75;;;2.10;99.90;;;;;;5016422;28;20124;-70
2022/03/31 04:05:31;;;;;;;10.95;4.57;;;2.10;99.90;;;;;;5034345;28;20077;-70
2022/03/31 04:07:57;;;;;;;11.48;5.25;;;2.20;99.90;;;;;;5034261;28;20497;-70
2022/03/31 04:10:22;;;;;;;12.13;5.70;;;2.10;99.90;;;;;;5016124;28;20048;-71
2022/03/31 04:12:49;;;;;;;11.32;5.15;;;2.10;99.90;;;;;;5033482;28;20120;-71
2022/03/31 04:15:15;;;;;;;12.32;5.28;;;2.10;99.90;;;;;;5015851;28;20064;-70
2022/03/31 04:17:42;;;;;;;12.15;5.93;;;2.10;99.90;;;;;;5033976;28;20041;-70
2022/03/31 04:20:09;;;;;;;10.73;4.88;;;2.00;99.90;;;;;;5015856;28;20485;-69
2022/03/31 04:22:37;;;;;;;11.15;5.75;;;2.00;99.90;;;;;;5033558;28;20106;-69
2022/03/31 04:25:07;;;;;;;12.10;6.03;;;2.00;99.90;;;;;;5033669;28;20054;-71
2022/03/31 04:27:34;;;;;;;12.35;5.97;;;2.00;99.90;;;;;;5033440;28;20041;-70
2022/03/31 04:30:02;;;;;;;12.15;5.60;;;1.90;99.90;;;;;;5015959;28;20052;-70
2022/03/31 04:32:28;;;;;;;12.05;6.03;;;2.70;99.90;;;;;;5033593;28;20042;-70
2022/03/31 04:34:54;;;;;;;10.70;5.28;;;1.90;99.90;;;;;;5015564;28;20068;-70
2022/03/31 04:37:20;;;;;;;11.48;5.65;;;1.90;99.90;;;;;;5033708;28;20389;-70
2022/03/31 04:39:45;;;;;;;12.57;5.60;;;1.90;99.90;;;;;;5015712;28;20065;-71
2022/03/31 04:42:11;;;;;;;12.48;5.55;;;1.90;99.90;;;;;;5032896;28;20513;-70
2022/03/31 04:44:39;;;;;;;12.48;5.93;;;1.90;99.90;;;;;;5015474;28;20508;-71
2022/03/31 04:47:06;;;;;;;12.05;5.32;;;1.90;99.90;;;;;;5033154;28;20543;-70
2022/03/31 04:49:32;;;;;;;11.90;5.82;;;1.90;99.90;;;;;;5032878;28;20168;-70
2022/03/31 04:51:59;;;;;;;11.88;6.38;;;2.40;99.90;;;;;;5015459;28;20048;-70
2022/03/31 04:54:25;;;;;;;12.57;6.13;;;1.90;99.90;;;;;;5032940;28;20120;-71
2022/03/31 04:56:50;;;;;;;13.40;6.15;;;1.90;99.90;;;;;;5032990;28;20132;-70
2022/03/31 04:59:16;;;;;;;12.85;5.95;;;1.90;99.90;;;;;;5032996;28;20068;-69
2022/03/31 05:01:42;;;;;;;12.32;6.53;;;1.90;99.90;;;;;;5033053;28;20048;-68
2022/03/31 05:04:09;;;;;;;13.70;6.32;;;1.80;99.90;;;;;;5032780;28;20037;-70
2022/03/31 05:06:38;;;;;;;11.20;4.78;;;2.80;99.90;;;;;;5032857;28;20453;-69
2022/03/31 05:09:04;;;;;;;11.40;5.32;;;1.80;99.90;;;;;;5033148;28;20103;-70
2022/03/31 05:11:32;;;;;;;10.20;4.82;;;1.90;99.90;;;;;;5015094;28;20092;-70
2022/03/31 05:13:58;;;;;;;10.55;4.75;;;1.90;99.90;;;;;;5032100;28;20097;-70
2022/03/31 05:16:24;;;;;;;11.27;4.82;;;1.80;99.90;;;;;;5032623;28;20054;-71
2022/03/31 05:18:49;;;;;;;11.27;5.47;;;1.80;99.90;;;;;;5015208;28;20133;-71
2022/03/31 05:21:15;;;;;;;11.20;5.20;;;1.80;99.90;;;;;;5032773;28;20060;-71
2022/03/31 05:23:41;;;;;;;11.15;5.10;;;1.80;99.90;;;;;;5032967;28;20515;-70
2022/03/31 05:26:06;;;;;;;15.45;5.82;;;1.80;99.90;;;;;;5015796;28;20480;-71
2022/03/31 05:28:32;;;;;;;12.85;5.78;;;1.80;99.90;;;;;;5000646;28;20041;-70
2022/03/31 05:30:58;;;;;;;11.60;5.60;;;1.80;99.90;;;;;;5045468;28;20053;-70
2022/03/31 05:33:24;;;;;;;12.68;5.35;;;1.80;99.90;;;;;;5051344;28;20021;-72
2022/03/31 05:35:49;;;;;;;11.98;5.18;;;1.80;99.90;;;;;;5023184;28;20049;-71
2022/03/31 05:38:15;;;;;;;10.70;5.30;;;1.80;99.90;;;;;;5015785;28;20049;-70
2022/03/31 05:40:41;;;;;;;11.32;5.22;;;1.80;99.90;;;;;;5015795;28;20460;-70
2022/03/31 05:43:07;;;;;;;13.57;5.90;;;1.80;99.90;;;;;;5032528;28;20084;-70
2022/03/31 05:45:45;;;;;;;13.25;5.82;;;1.80;99.90;;;;;;5032778;28;20073;-73
2022/03/31 05:48:10;;;;;;;12.80;5.97;;;1.80;99.90;;;;;;5032482;28;20041;-70
2022/03/31 05:50:36;;;;;;;14.13;5.95;;;1.80;99.90;;;;;;5032699;28;20091;-71
2022/03/31 05:53:02;;;;;;;12.27;5.43;;;1.80;99.90;;;;;;5032603;28;20037;-71
2022/03/31 05:55:28;;;;;;;14.80;5.50;;;1.80;99.90;;;;;;5033258;28;20083;-72
2022/03/31 05:57:54;;;;;;;13.27;5.82;;;1.80;99.90;;;;;;5034723;28;20050;-70
2022/03/31 06:00:21;;;;;;;11.52;5.57;;;1.80;99.90;;;;;;5014828;28;20061;-71
2022/03/31 06:02:47;;;;;;;13.38;6.50;;;1.70;99.90;;;;;;5032181;28;20045;-70
2022/03/31 06:05:14;;;;;;;11.63;5.65;;;1.70;99.90;;;;;;5032233;28;20497;-70
2022/03/31 06:07:40;;;;;;;14.75;6.20;;;1.80;99.90;;;;;;5032802;28;20053;-69
2022/03/31 06:10:06;;;;;;;13.27;6.32;;;2.30;99.90;;;;;;5032841;28;20390;-71
2022/03/31 06:12:32;;;;;;;12.68;6.10;;;1.80;99.90;;;;;;5032824;28;20065;-70
2022/03/31 06:14:58;;;;;;;15.07;6.78;;;1.80;99.90;;;;;;5033135;28;20104;-70
2022/03/31 06:17:24;;;;;;;13.95;6.13;;;1.80;99.90;;;;;;5014440;28;20048;-70
2022/03/31 06:19:50;;;;;;;15.40;6.90;;;1.80;99.90;;;;;;5027813;28;20180;-70
2022/03/31 06:22:16;;;;;;;15.38;6.13;;;2.40;99.90;;;;;;5013077;28;20526;-69
2022/03/31 06:24:41;;;;;;;13.73;6.78;;;1.90;99.90;;;;;;5009157;28;20038;-77
2022/03/31 06:27:08;;;;;;;13.05;5.85;;;1.90;99.90;;;;;;5011002;28;20164;-71
2022/03/31 06:32:09;;;;;;;14.55;6.10;;;2.00;99.90;;;;;;4796204;26;20062;-71
2022/03/31 06:34:36;;;;;;;12.52;5.82;;;2.00;99.90;;;;;;4990342;28;20486;-70
2022/03/31 06:37:02;;;;;;;14.98;7.03;;;2.10;99.90;;;;;;4991355;28;20038;-73
2022/03/31 06:39:28;;;;;;;14.13;6.80;;;2.10;99.90;;;;;;4985148;28;20524;-73
2022/03/31 06:41:54;;;;;;;15.88;7.00;;;2.10;99.90;;;;;;5003139;28;20050;-73
2022/03/31 06:44:21;;;;;;;14.15;6.55;;;2.10;99.90;;;;;;5013907;28;20038;-78
2022/03/31 06:46:47;;;;;;;13.35;6.05;;;2.20;99.90;;;;;;5012578;28;20136;-77
2022/03/31 06:49:13;;;;;;;11.82;5.38;;;2.10;99.90;;;;;;5013575;28;20413;-77
2022/03/31 06:51:39;;;;;;;12.18;5.78;;;2.20;99.90;;;;;;5013257;28;20056;-75
2022/03/31 06:54:04;;;;;;;13.32;5.78;;;2.20;99.90;;;;;;5014175;28;20034;-76
2022/03/31 06:56:31;;;;;;;10.68;4.68;;;2.20;99.90;;;;;;5012593;28;20064;-78
2022/03/31 06:58:58;;;;;;;12.85;5.50;;;2.30;99.90;;;;;;5013581;28;20104;-75
2022/03/31 07:01:25;;;;;;;11.95;5.53;;;2.30;99.90;;;;;;5013964;28;20042;-78
2022/03/31 07:03:51;;;;;;;11.15;5.03;;;2.50;99.90;;;;;;5012313;28;20073;-74
2022/03/31 07:06:17;;;;;;;11.75;5.35;;;2.30;99.90;;;;;;5013532;28;20101;-73
2022/03/31 07:08:43;;;;;;;13.00;5.45;;;2.30;99.90;;;;;;5013570;28;20081;-71
2022/03/31 07:11:10;;;;;;;12.27;6.10;;;2.80;99.90;;;;;;5013298;28;20080;-73
2022/03/31 07:13:37;;;;;;;12.05;4.65;;;2.30;99.90;;;;;;5011776;28;20521;-70
2022/03/31 07:16:04;;;;;;;10.30;4.80;;;2.30;99.90;;;;;;5011808;28;20092;-71
2022/03/31 07:18:29;;;;;;;12.65;5.90;;;2.30;99.90;;;;;;5012737;28;20048;-74
2022/03/31 07:20:57;;;;;;;10.80;4.85;;;2.30;99.90;;;;;;5012823;28;20054;-71
2022/03/31 07:23:25;;;;;;;12.02;4.75;;;2.30;99.90;;;;;;5012749;28;20045;-72
2022/03/31 07:25:51;;;;;;;10.30;5.13;;;2.50;99.90;;;;;;5013095;28;20505;-71
2022/03/31 07:28:17;;;;;;;11.20;5.57;;;2.30;99.90;;;;;;5025386;28;20034;-73
2022/03/31 07:30:43;;;;;;;10.52;4.88;;;2.30;99.90;;;;;;5021150;28;20064;-70
2022/03/31 07:33:09;;;;;;;11.70;4.70;;;2.40;99.90;;;;;;5014067;28;20449;-71
2022/03/31 07:35:39;;;;;;;10.40;4.70;;;2.40;99.90;;;;;;5011506;28;20556;-72
2022/03/31 07:38:09;;;;;;;10.05;4.82;;;3.00;99.90;;;;;;4996063;28;20042;-72
2022/03/31 07:40:37;;;;;;;11.45;4.95;;;2.30;99.90;;;;;;5013534;28;20528;-72
2022/03/31 07:43:04;;;;;;;11.25;4.75;;;2.30;99.90;;;;;;5012254;28;20048;-74
2022/03/31 07:45:31;;;;;;;14.05;4.90;;;2.30;99.90;;;;;;5012179;28;20061;-72
2022/03/31 07:47:56;;;;;;;9.45;4.05;;;2.40;99.90;;;;;;5012306;28;20149;-71
2022/03/31 07:50:22;;;;;;;9.93;4.35;;;2.30;99.90;;;;;;5012747;28;20494;-70
2022/03/31 07:52:49;;;;;;;8.55;3.35;;;2.30;99.90;;;;;;4993773;28;20045;-71
2022/03/31 07:55:16;;;;;;;10.27;4.30;;;2.70;99.90;;;;;;5010116;28;20050;-71
2022/03/31 07:57:43;;;;;;;7.75;3.42;;;2.30;99.90;;;;;;5011027;28;20466;-67
2022/03/31 08:00:11;;;;;;;7.47;3.05;;;2.80;99.90;;;;;;4994762;28;20438;-70
2022/03/31 08:02:42;;;;;;;7.43;2.97;;;2.30;99.90;;;;;;5010819;28;20386;-72
2022/03/31 08:05:12;;;;;;;9.10;3.65;;;2.20;99.90;;;;;;5010471;28;20092;-71
2022/03/31 08:07:38;;;;;;;8.75;2.88;;;2.20;99.90;;;;;;5011574;28;20414;-72
2022/03/31 08:10:05;;;;;;;6.90;2.70;;;2.20;99.90;;;;;;5011077;28;20042;-71
2022/03/31 08:12:31;;;;;;;7.95;3.00;;;2.10;99.90;;;;;;5011612;28;20398;-70
2022/03/31 08:14:57;;;;;;;8.52;3.28;;;2.10;99.90;;;;;;5009879;28;20058;-72
2022/03/31 08:17:23;;;;;;;8.70;3.15;;;2.00;99.90;;;;;;5010051;28;20042;-72
2022/03/31 08:19:49;;;;;;;7.00;2.83;;;2.10;99.90;;;;;;5011560;28;20037;-74
2022/03/31 08:22:17;;;;;;;8.13;2.47;;;2.80;99.90;;;;;;5009577;28;20061;-72
2022/03/31 08:24:44;;;;;;;8.52;3.33;;;2.00;99.90;;;;;;5010662;28;20042;-70
2022/03/31 08:27:10;;;;;;;6.50;2.47;;;2.00;99.90;;;;;;5010916;28;20050;-71
2022/03/31 08:29:35;;;;;;;8.10;2.75;;;2.00;99.90;;;;;;5012154;28;20137;-71
2022/03/31 08:32:01;;;;;;;5.68;2.47;;;2.30;99.90;;;;;;4994219;28;20133;-70
2022/03/31 08:34:27;;;;;;;6.85;2.60;;;1.90;99.90;;;;;;5012165;28;20563;-71
2022/03/31 08:36:53;;;;;;;5.85;2.25;;;1.90;99.90;;;;;;5011958;28;20387;-70
2022/03/31 08:39:19;;;;;;;6.80;2.50;;;1.90;99.90;;;;;;4994680;28;20502;-73
2022/03/31 08:41:44;;;;;;;7.07;2.35;;;1.90;99.90;;;;;;5011140;28;20121;-72
2022/03/31 08:44:18;;;;;;;6.65;3.00;;;1.80;99.90;;;;;;5012130;28;20045;-68
2022/03/31 08:46:44;;;;;;;8.05;3.30;;;1.80;99.90;;;;;;5010431;28;20054;-71
2022/03/31 08:49:11;;;;;;;9.68;3.38;;;1.70;99.90;;;;;;4994340;28;20512;-68
2022/03/31 08:51:37;;;;;;;8.98;3.25;;;1.70;99.90;;;;;;4995022;28;20069;-71
2022/03/31 08:54:04;;;;;;;6.55;2.60;;;1.70;99.90;;;;;;5011597;28;20046;-73
2022/03/31 08:56:30;;;;;;;7.35;2.20;;;1.60;99.90;;;;;;5011662;28;20054;-72
2022/03/31 08:58:56;;;;;;;8.77;2.92;;;1.60;99.90;;;;;;5011358;28;20049;-71
2022/03/31 09:01:22;;;;;;;6.78;2.75;;;1.60;99.90;;;;;;5010456;28;20056;-72
2022/03/31 09:03:48;;;;;;;8.73;3.17;;;1.50;99.90;;;;;;5010712;28;20056;-70
2022/03/31 09:06:25;;;;;;;7.10;3.08;;;1.50;99.90;;;;;;5009570;28;20567;-69
2022/03/31 09:08:58;;;;;;;9.88;3.35;;;1.50;99.90;;;;;;5010107;28;20502;-71
2022/03/31 09:11:28;;;;;;;8.85;2.95;;;1.40;99.90;;;;;;5011654;28;20038;-71
2022/03/31 09:13:59;;;;;;;8.73;3.45;;;1.40;99.90;;;;;;5009894;28;20670;-71
2022/03/31 09:16:38;;;;;;;9.30;3.05;;;1.40;99.90;;;;;;4994002;28;20046;-72
2022/03/31 09:19:09;;;;;;;9.77;3.33;;;1.40;99.90;;;;;;5010772;28;20501;-70
2022/03/31 09:21:57;;;;;;;8.05;3.03;;;1.30;99.90;;;;;;5015035;28;20485;-68
2022/03/31 09:24:23;;;;;;;9.68;3.25;;;1.40;99.90;;;;;;5011720;28;20026;-69
2022/03/31 09:26:52;;;;;;;8.15;3.22;;;1.30;99.90;;;;;;5009496;28;20060;-71
2022/03/31 09:29:20;;;;;;;8.68;3.33;;;1.30;99.90;;;;;;5020543;28;20076;-69
2022/03/31 09:31:47;;;;;;;9.43;3.63;;;1.30;99.90;;;;;;5013719;28;20054;-71
2022/03/31 09:34:13;;;;;;;9.73;3.60;;;1.30;99.90;;;;;;5011749;28;20054;-70
2022/03/31 09:36:47;;;;;;;8.77;3.95;;;1.30;99.90;;;;;;5012161;28;20053;-71
2022/03/31 09:39:17;;;;;;;8.73;3.17;;;1.20;99.90;;;;;;5010909;28;20092;-68
2022/03/31 09:41:46;;;;;;;8.82;3.28;;;1.10;99.90;;;;;;5027082;28;20345;-70
2022/03/31 09:44:17;;;;;;;9.85;3.83;;;1.10;99.90;;;;;;5017974;22;20054;-70
2022/03/31 09:46:46;;;;;;;10.20;3.90;;;1.00;99.90;;;;;;4992946;28;20085;-69
2022/03/31 09:49:15;;;;;;;10.70;3.58;;;1.00;99.90;;;;;;4993365;28;20100;-70
2022/03/31 09:51:43;;;;;;;10.40;3.33;;;0.90;99.90;;;;;;5011138;28;20140;-70
2022/03/31 09:54:09;;;;;;;8.60;3.00;;;0.90;99.90;;;;;;5010890;28;20570;-69
2022/03/31 09:56:38;;;;;;;9.75;3.15;;;0.90;99.90;;;;;;4993116;28;20137;-75
2022/03/31 09:59:05;;;;;;;6.53;2.65;;;0.80;99.90;;;;;;4993298;28;20061;-70
2022/03/31 10:01:31;;;;;;;8.23;3.20;;;0.80;99.90;;;;;;4993031;28;20057;-68
2022/03/31 10:03:57;;;;;;;10.98;3.53;;;0.80;99.90;;;;;;5011128;28;20046;-70
2022/03/31 10:06:26;;;;;;;6.72;2.63;;;0.80;99.90;;;;;;5010996;28;20054;-70
2022/03/31 10:08:53;;;;;;;8.43;3.13;;;0.80;99.90;;;;;;5010721;28;20051;-70
2022/03/31 10:11:22;;;;;;;8.52;3.15;;;0.80;99.90;;;;;;4977117;28;20494;-70
2022/03/31 10:14:03;;;;;;;7.72;3.25;;;0.70;99.90;;;;;;5011047;28;20510;-69
2022/03/31 10:16:57;;;;;;;7.63;3.40;;;0.60;99.90;;;;;;5011439;28;20558;-68
2022/03/31 10:19:30;;;;;;;7.85;3.05;;;0.70;99.90;;;;;;5000170;28;20085;-69
2022/03/31 10:24:57;;;;;;;8.50;3.55;;;0.60;99.90;;;;;;4996779;28;20056;-70
2022/03/31 10:27:31;;;;;;;8.27;2.67;;;0.60;99.90;;;;;;4996478;28;20129;-70
2022/03/31 10:30:19;;;;;;;6.82;2.67;;;0.60;99.90;;;;;;5014430;28;20041;-69
2022/03/31 10:32:56;;;;;;;5.68;2.03;;;0.60;99.90;;;;;;4997116;28;20042;-69
2022/03/31 10:35:39;;;;;;;7.13;3.42;;;0.60;99.90;;;;;;4996537;28;20061;-72
2022/03/31 10:38:23;;;;;;;8.25;3.22;;;0.60;99.90;;;;;;4995735;28;20042;-72
2022/03/31 10:40:59;;;;;;;7.35;2.95;;;0.60;99.90;;;;;;4997080;28;20103;-73
2022/03/31 10:43:27;;;;;;;10.63;2.83;;;0.60;99.90;;;;;;4996688;28;20081;-73
2022/03/31 10:45:58;;;;;;;8.50;3.13;;;0.60;99.90;;;;;;4996380;28;20054;-76
2022/03/31 10:48:26;;;;;;;7.57;3.10;;;0.60;99.90;;;;;;4995775;28;20053;-72
2022/03/31 10:51:07;;;;;;;6.18;2.60;;;1.30;99.90;;;;;;4995974;28;20121;-70
2022/03/31 10:53:35;;;;;;;9.50;3.50;;;0.70;99.90;;;;;;5013724;28;20053;-73
2022/03/31 10:56:03;;;;;;;6.63;2.70;;;0.70;99.90;;;;;;4996214;28;20140;-72
2022/03/31 10:58:30;;;;;;;10.20;3.90;;;0.70;99.90;;;;;;4980105;28;20056;-73
2022/03/31 11:00:58;;;;;;;11.55;4.82;;;0.70;99.90;;;;;;5013873;28;20042;-74
2022/03/31 11:03:24;;;;;;;11.82;4.60;;;0.70;99.90;;;;;;5013618;28;20085;-73
2022/03/31 11:05:50;;;;;;;12.60;4.30;;;1.30;99.90;;;;;;4979402;28;20100;-72
2022/03/31 11:08:20;;;;;;;10.88;4.55;;;0.80;99.90;;;;;;4996420;28;20046;-72
2022/03/31 11:10:49;;;;;;;10.75;4.30;;;0.70;99.90;;;;;;4996153;28;20060;-72
2022/03/31 11:13:18;;;;;;;10.65;4.55;;;0.80;99.90;;;;;;5013425;28;20124;-72
2022/03/31 11:15:47;;;;;;;11.20;4.88;;;0.80;99.90;;;;;;5013233;28;20053;-73
2022/03/31 11:18:13;;;;;;;9.77;4.20;;;0.80;99.90;;;;;;4998168;28;20387;-70
2022/03/31 11:20:38;;;;;;;13.40;5.38;;;0.80;99.90;;;;;;5020932;28;20046;-72
2022/03/31 11:23:08;;;;;;;9.90;4.43;;;0.90;99.90;;;;;;5020052;28;20038;-72
2022/03/31 11:25:34;;;;;;;12.88;5.30;;;0.90;99.90;;;;;;5013990;28;20076;-71
2022/03/31 11:28:08;;;;;;;12.32;5.75;;;0.90;99.90;;;;;;4995609;28;20372;-71
2022/03/31 11:30:34;;;;;;;13.52;5.95;;;0.90;99.90;;;;;;4996824;28;20053;-72
2022/03/31 11:33:00;;;;;;;11.63;5.13;;;0.90;99.90;;;;;;5014672;28;20046;-72
2022/03/31 11:35:28;;;;;;;12.50;5.95;;;0.90;99.90;;;;;;5012984;28;20053;-71
2022/03/31 11:37:57;;;;;;;14.23;6.60;;;0.90;99.90;;;;;;5012711;28;20034;-71
2022/03/31 11:40:26;;;;;;;13.15;6.22;;;1.00;99.90;;;;;;5012962;28;20064;-71
2022/03/31 11:42:54;;;;;;;15.52;6.80;;;1.00;99.90;;;;;;4995679;28;20054;-73
2022/03/31 11:45:36;;;;;;;15.45;7.55;;;1.70;99.90;;;;;;5012677;28;20128;-71
2022/03/31 11:48:06;;;;;;;16.23;6.93;;;1.10;99.90;;;;;;5012835;28;20050;-72
2022/03/31 11:50:36;;;;;;;15.50;7.70;;;1.10;99.90;;;;;;5012932;28;20053;-73
2022/03/31 11:53:03;;;;;;;16.73;7.72;;;1.20;99.90;;;;;;4994709;28;20042;-73
2022/03/31 11:55:29;;;;;;;15.85;8.27;;;1.30;99.90;;;;;;5012344;28;20520;-70
2022/03/31 11:58:00;;;;;;;16.02;8.27;;;1.30;99.90;;;;;;4978829;28;20061;-74
2022/03/31 12:00:28;;;;;;;17.75;8.52;;;1.30;99.90;;;;;;4995053;28;20147;-73
2022/03/31 12:02:54;;;;;;;18.25;9.07;;;1.40;99.90;;;;;;4995692;28;20056;-75
2022/03/31 12:05:20;;;;;;;19.20;9.40;;;1.50;99.90;;;;;;4994511;28;20133;-70
2022/03/31 12:07:47;;;;;;;19.08;8.95;;;1.50;99.90;;;;;;5012801;28;20153;-69
2022/03/31 12:10:13;;;;;;;24.08;10.35;;;1.50;99.90;;;;;;4978028;28;20046;-74
2022/03/31 12:12:47;;;;;;;20.65;9.82;;;2.20;99.90;;;;;;4979095;28;20096;-73
2022/03/31 12:15:19;;;;;;;19.67;9.80;;;2.30;99.90;;;;;;5012244;28;20270;-72
2022/03/31 12:17:59;;;;;;;19.52;10.55;;;1.70;99.90;;;;;;5012785;28;20060;-73
2022/03/31 12:20:29;;;;;;;19.80;10.07;;;1.80;99.90;;;;;;5011875;28;20506;-72
2022/03/31 12:22:56;;;;;;;18.75;9.40;;;1.90;99.90;;;;;;5012331;28;20137;-73
2022/03/31 12:25:33;;;;;;;22.10;10.20;;;1.90;99.90;;;;;;5011344;28;20038;-73
2022/03/31 12:28:09;;;;;;;20.02;10.32;;;2.00;99.90;;;;;;5012249;28;20046;-72
2022/03/31 12:30:47;;;;;;;18.13;9.65;;;2.00;99.90;;;;;;5012117;28;20038;-71
2022/03/31 12:33:26;;;;;;;19.35;9.65;;;2.10;99.90;;;;;;5012248;28;20060;-73
2022/03/31 12:36:03;;;;;;;19.05;9.85;;;2.10;99.90;;;;;;5011926;28;20077;-70
2022/03/31 12:38:36;;;;;;;19.83;10.35;;;2.10;99.90;;;;;;5011952;28;20045;-71
2022/03/31 12:41:03;;;;;;;17.98;8.90;;;2.20;99.90;;;;;;5011750;28;20444;-72
2022/03/31 12:43:28;;;;;;;19.42;9.30;;;3.50;99.90;;;;;;5011232;28;20516;-71
2022/03/31 12:45:54;;;;;;;21.17;11.32;;;2.30;99.90;;;;;;5011780;28;20054;-70
2022/03/31 12:48:20;;;;;;;25.20;11.60;;;2.20;99.90;;;;;;4977662;28;20049;-68
2022/03/31 12:50:46;;;;;;;21.95;11.10;;;2.20;99.90;;;;;;5011823;28;20049;-69
2022/03/31 12:53:12;;;;;;;21.42;10.85;;;2.20;99.90;;;;;;5012001;28;20045;-71
2022/03/31 12:55:41;;;;;;;23.30;12.02;;;2.20;99.90;;;;;;4994520;28;20038;-70
2022/03/31 12:58:08;;;;;;;20.13;11.85;;;2.20;99.90;;;;;;5011821;28;20042;-74
2022/03/31 13:00:35;;;;;;;24.08;13.10;;;2.10;99.90;;;;;;5017823;28;20134;-72